Terminal Aerodrome Forecast
Issued by NWS

Home | Current Version | Previous Version | Text Only | Print | Product List | Glossary On
Versions: 1 2 3 4 5 6 7 8 9 10 11 12 13 14 15 16 17 18 19
745
FTUS45 KMSO 121720
TAFSMN
TAF
KSMN 121720Z 1218/1318 VRB03KT 5SM BR FEW001 SCT150
     FM122000 VRB03KT P6SM BKN150
      AMD LTD TO CLD VIS AND WIND=

USA.gov is the U.S. government's official web portal to all federal, state and local government web resources and services.